Time;durP1;ratioP1;P1;durP2;ratioP2;P2;SDS_P1;SDS_P2;PMS_P1;PMS_P2;Temp;Humidity;BMP_temperature;BMP_pressure;BME280_temperature;BME280_humidity;BME280_pressure;Samples;Min_cycle;Max_cycle;Signal;HPM_P1;HPM_P2
2023/11/29 00:01:15;;;;;;;12.47;9.97;;;;;;;;;;5115414;28;20072;-55
2023/11/29 00:03:41;;;;;;;12.77;9.67;;;;;;;;;;5115092;28;20084;-53
2023/11/29 00:06:07;;;;;;;10.37;8.90;;;;;;;;;;5115863;28;20024;-53
2023/11/29 00:08:33;;;;;;;14.00;9.93;;;;;;;;;;5116186;28;20106;-56
2023/11/29 00:10:59;;;;;;;12.07;9.80;;;;;;;;;;5115323;28;20493;-57
2023/11/29 00:13:25;;;;;;;10.97;9.27;;;;;;;;;;5115156;28;20076;-56
2023/11/29 00:15:51;;;;;;;11.87;9.87;;;;;;;;;;5115504;28;20027;-57
2023/11/29 00:18:16;;;;;;;10.83;9.73;;;;;;;;;;5115713;28;20030;-56
2023/11/29 00:20:44;;;;;;;12.50;10.33;;;;;;;;;;5115141;28;20028;-55
2023/11/29 00:23:10;;;;;;;11.53;9.77;;;;;;;;;;5115866;28;20472;-54
2023/11/29 00:25:36;;;;;;;11.83;10.30;;;;;;;;;;5115532;28;20032;-56
2023/11/29 00:28:02;;;;;;;14.17;12.13;;;;;;;;;;5115282;28;20351;-54
2023/11/29 00:30:29;;;;;;;12.20;10.53;;;;;;;;;;5114681;28;20465;-53
2023/11/29 00:32:55;;;;;;;13.30;10.37;;;;;;;;;;5114791;28;20061;-55
2023/11/29 00:35:21;;;;;;;11.40;10.20;;;;;;;;;;5115356;28;20027;-50
2023/11/29 00:37:47;;;;;;;11.50;9.70;;;;;;;;;;5115344;28;20411;-52
2023/11/29 00:40:13;;;;;;;12.97;10.83;;;;;;;;;;5115064;28;20433;-51
2023/11/29 00:42:40;;;;;;;12.67;10.57;;;;;;;;;;5115471;28;20020;-53
2023/11/29 00:45:06;;;;;;;11.80;10.33;;;;;;;;;;5114668;28;20457;-52
2023/11/29 00:47:32;;;;;;;15.03;11.17;;;;;;;;;;5114229;28;20533;-53
2023/11/29 00:49:57;;;;;;;15.50;11.00;;;;;;;;;;5114216;28;20116;-54
2023/11/29 00:52:23;;;;;;;13.07;10.57;;;;;;;;;;5114460;28;20038;-54
2023/11/29 00:54:49;;;;;;;14.87;11.33;;;;;;;;;;5114218;28;20020;-55
2023/11/29 00:57:15;;;;;;;11.70;9.47;;;;;;;;;;5114765;28;20031;-54
2023/11/29 00:59:41;;;;;;;15.10;10.77;;;;;;;;;;5114423;28;20050;-53
2023/11/29 01:02:07;;;;;;;12.13;10.47;;;;;;;;;;5114314;28;20034;-54
2023/11/29 01:04:33;;;;;;;12.53;9.90;;;;;;;;;;5114413;28;20103;-52
2023/11/29 01:06:59;;;;;;;13.93;11.27;;;;;;;;;;5114931;28;20084;-57
2023/11/29 01:09:25;;;;;;;19.23;15.20;;;;;;;;;;5115082;28;20026;-54
2023/11/29 01:11:51;;;;;;;14.53;12.00;;;;;;;;;;5114575;28;20036;-55
2023/11/29 01:14:17;;;;;;;13.00;11.37;;;;;;;;;;5114184;28;20071;-53
2023/11/29 01:16:43;;;;;;;14.60;11.33;;;;;;;;;;5114232;28;20106;-54
2023/11/29 01:19:09;;;;;;;14.50;11.43;;;;;;;;;;5114363;28;20024;-51
2023/11/29 01:21:38;;;;;;;11.90;10.70;;;;;;;;;;5114169;28;20024;-54
2023/11/29 01:24:05;;;;;;;15.43;10.70;;;;;;;;;;5114122;28;20031;-53
2023/11/29 01:26:31;;;;;;;12.53;10.30;;;;;;;;;;5114406;28;20445;-52
2023/11/29 01:28:57;;;;;;;14.60;11.23;;;;;;;;;;5114636;28;20034;-50
2023/11/29 01:31:26;;;;;;;11.87;10.67;;;;;;;;;;5113697;28;20526;-53
2023/11/29 01:33:52;;;;;;;10.97;9.63;;;;;;;;;;5113954;28;20524;-52
2023/11/29 01:36:18;;;;;;;11.67;9.87;;;;;;;;;;5095746;28;20488;-54
2023/11/29 01:38:44;;;;;;;12.40;10.53;;;;;;;;;;5114048;28;20024;-54
2023/11/29 01:41:10;;;;;;;15.40;10.93;;;;;;;;;;5113927;28;20032;-57
2023/11/29 01:43:36;;;;;;;13.17;10.07;;;;;;;;;;5113620;28;20026;-55
2023/11/29 01:46:02;;;;;;;11.70;9.10;;;;;;;;;;5114699;28;20047;-55
2023/11/29 01:48:29;;;;;;;11.77;10.17;;;;;;;;;;5114631;28;20028;-54
2023/11/29 01:50:55;;;;;;;15.10;10.10;;;;;;;;;;5114119;28;20027;-53
2023/11/29 01:53:22;;;;;;;9.53;8.50;;;;;;;;;;5113945;28;20027;-54
2023/11/29 01:55:50;;;;;;;15.27;10.40;;;;;;;;;;5114686;28;20075;-55
2023/11/29 01:58:16;;;;;;;13.50;9.80;;;;;;;;;;5113793;28;20114;-51
2023/11/29 02:00:43;;;;;;;12.43;10.87;;;;;;;;;;5117183;28;20032;-53
2023/11/29 02:03:09;;;;;;;12.87;11.13;;;;;;;;;;5118307;28;20027;-52
2023/11/29 02:05:35;;;;;;;13.20;10.93;;;;;;;;;;5117976;28;20476;-53
2023/11/29 02:08:01;;;;;;;13.80;10.53;;;;;;;;;;5118089;28;20454;-54
2023/11/29 02:10:26;;;;;;;12.23;9.97;;;;;;;;;;5118116;28;20023;-52
2023/11/29 02:12:52;;;;;;;13.77;10.07;;;;;;;;;;5117239;28;20366;-51
2023/11/29 02:15:18;;;;;;;11.90;9.20;;;;;;;;;;5117754;28;20024;-53
2023/11/29 02:17:44;;;;;;;10.80;8.70;;;;;;;;;;5118202;28;20028;-54
2023/11/29 02:20:13;;;;;;;11.20;9.60;;;;;;;;;;5117574;28;20015;-53
2023/11/29 02:22:40;;;;;;;16.27;10.27;;;;;;;;;;5117454;28;20381;-55
2023/11/29 02:25:06;;;;;;;13.83;8.87;;;;;;;;;;5118090;28;20024;-54
2023/11/29 02:27:32;;;;;;;15.67;11.47;;;;;;;;;;5118217;28;20415;-54
2023/11/29 02:29:58;;;;;;;14.80;11.53;;;;;;;;;;5117219;28;20028;-54
2023/11/29 02:32:24;;;;;;;14.20;10.63;;;;;;;;;;5117066;28;20469;-55
2023/11/29 02:34:50;;;;;;;12.03;10.47;;;;;;;;;;5117121;28;20023;-50
2023/11/29 02:37:16;;;;;;;11.00;9.30;;;;;;;;;;5117673;28;20023;-54
2023/11/29 02:39:42;;;;;;;11.40;9.67;;;;;;;;;;5117035;28;20016;-55
2023/11/29 02:42:08;;;;;;;11.87;9.00;;;;;;;;;;5116439;28;20110;-52
2023/11/29 02:44:34;;;;;;;12.30;9.10;;;;;;;;;;5117458;28;20028;-55
2023/11/29 02:47:00;;;;;;;12.10;9.77;;;;;;;;;;5117244;28;20056;-55
2023/11/29 02:49:26;;;;;;;13.57;9.60;;;;;;;;;;5116788;28;20032;-54
2023/11/29 02:51:52;;;;;;;11.37;8.87;;;;;;;;;;5117670;28;20023;-53
2023/11/29 02:54:18;;;;;;;9.70;8.43;;;;;;;;;;5116713;28;20028;-55
2023/11/29 02:56:44;;;;;;;12.67;8.90;;;;;;;;;;5117875;28;20087;-55
2023/11/29 02:59:10;;;;;;;10.80;8.97;;;;;;;;;;5117225;28;20052;-53
2023/11/29 03:01:36;;;;;;;13.47;9.60;;;;;;;;;;5116803;28;20027;-55
2023/11/29 03:04:02;;;;;;;10.33;9.10;;;;;;;;;;5116654;28;20057;-55
2023/11/29 03:06:28;;;;;;;11.33;9.00;;;;;;;;;;5116228;28;20074;-54
2023/11/29 03:08:54;;;;;;;9.97;8.97;;;;;;;;;;5117118;28;20053;-51
2023/11/29 03:11:20;;;;;;;10.63;9.10;;;;;;;;;;5115179;28;20020;-55
2023/11/29 03:13:46;;;;;;;13.00;9.70;;;;;;;;;;5116333;28;20039;-53
2023/11/29 03:16:11;;;;;;;9.67;8.03;;;;;;;;;;5116308;28;20046;-55
2023/11/29 03:18:38;;;;;;;12.03;9.37;;;;;;;;;;5116642;28;20103;-55
2023/11/29 03:21:04;;;;;;;9.47;8.47;;;;;;;;;;5116322;28;20032;-51
2023/11/29 03:23:29;;;;;;;12.47;9.57;;;;;;;;;;5115949;28;20030;-54
2023/11/29 03:25:55;;;;;;;15.77;9.63;;;;;;;;;;5116234;28;20023;-53
2023/11/29 03:28:21;;;;;;;10.80;9.67;;;;;;;;;;5116212;28;20116;-55
2023/11/29 03:30:47;;;;;;;11.03;9.03;;;;;;;;;;5116422;28;20051;-55
2023/11/29 03:33:13;;;;;;;11.70;9.97;;;;;;;;;;5116748;28;20232;-52
2023/11/29 03:35:39;;;;;;;13.40;9.50;;;;;;;;;;5115978;28;20016;-53
2023/11/29 03:38:05;;;;;;;12.17;9.57;;;;;;;;;;5116555;28;20110;-54
2023/11/29 03:40:31;;;;;;;11.20;9.87;;;;;;;;;;5115927;28;20059;-51
2023/11/29 03:42:57;;;;;;;12.00;9.50;;;;;;;;;;5116387;28;20077;-50
2023/11/29 03:45:23;;;;;;;12.07;9.70;;;;;;;;;;5115865;28;20076;-53
2023/11/29 03:47:49;;;;;;;13.20;8.90;;;;;;;;;;5116370;28;20024;-51
2023/11/29 03:50:15;;;;;;;11.97;10.70;;;;;;;;;;5115714;28;20023;-53
2023/11/29 03:52:41;;;;;;;11.60;10.33;;;;;;;;;;5116156;28;20038;-55
2023/11/29 03:55:07;;;;;;;13.77;11.10;;;;;;;;;;5115540;28;20027;-53
2023/11/29 03:57:34;;;;;;;11.33;8.77;;;;;;;;;;5115641;28;20106;-50
2023/11/29 04:00:00;;;;;;;12.23;10.57;;;;;;;;;;5115481;28;20027;-52
2023/11/29 04:02:26;;;;;;;12.67;11.27;;;;;;;;;;5115733;28;20034;-54
2023/11/29 04:04:52;;;;;;;12.83;10.50;;;;;;;;;;5115408;28;20031;-54
2023/11/29 04:07:18;;;;;;;12.60;10.10;;;;;;;;;;5116218;28;20027;-50
2023/11/29 04:09:44;;;;;;;13.87;10.47;;;;;;;;;;5115621;28;20028;-50
2023/11/29 04:12:10;;;;;;;12.07;10.27;;;;;;;;;;5115700;28;20023;-50
2023/11/29 04:14:37;;;;;;;14.00;10.73;;;;;;;;;;5115211;28;20039;-52
2023/11/29 04:17:03;;;;;;;11.70;9.40;;;;;;;;;;5115801;28;20595;-54
2023/11/29 04:19:29;;;;;;;13.43;10.13;;;;;;;;;;5115194;28;20051;-54
2023/11/29 04:21:56;;;;;;;11.27;9.60;;;;;;;;;;5115494;28;20063;-52
2023/11/29 04:24:22;;;;;;;11.43;8.90;;;;;;;;;;5115328;28;20038;-51
2023/11/29 04:26:47;;;;;;;12.07;10.13;;;;;;;;;;5115302;28;20023;-51
2023/11/29 04:29:14;;;;;;;11.90;9.60;;;;;;;;;;5114669;28;20035;-54
2023/11/29 04:31:40;;;;;;;10.17;9.00;;;;;;;;;;5115732;28;20024;-52
2023/11/29 04:34:07;;;;;;;12.97;9.73;;;;;;;;;;5114803;28;20031;-55
2023/11/29 04:36:33;;;;;;;11.53;9.83;;;;;;;;;;5114815;28;20046;-50
2023/11/29 04:39:00;;;;;;;14.00;10.63;;;;;;;;;;5114798;28;20023;-55
2023/11/29 04:41:26;;;;;;;13.67;10.00;;;;;;;;;;5114712;28;20395;-52
2023/11/29 04:43:52;;;;;;;13.50;10.10;;;;;;;;;;5114665;28;20024;-53
2023/11/29 04:46:18;;;;;;;13.00;9.77;;;;;;;;;;5114642;28;20019;-52
2023/11/29 04:48:45;;;;;;;10.50;9.40;;;;;;;;;;5115134;28;20168;-55
2023/11/29 04:51:12;;;;;;;13.27;11.07;;;;;;;;;;5114879;28;20027;-51
2023/11/29 04:53:38;;;;;;;12.73;10.20;;;;;;;;;;5114952;28;20028;-51
2023/11/29 04:56:04;;;;;;;15.33;11.40;;;;;;;;;;5114565;28;20059;-52
2023/11/29 04:58:30;;;;;;;11.83;9.93;;;;;;;;;;5114799;28;20411;-52
2023/11/29 05:00:56;;;;;;;13.03;9.97;;;;;;;;;;5114925;28;20023;-52
2023/11/29 05:03:22;;;;;;;14.60;10.30;;;;;;;;;;5114532;28;20039;-52
2023/11/29 05:05:48;;;;;;;14.13;11.37;;;;;;;;;;5114789;28;20023;-54
2023/11/29 05:08:15;;;;;;;12.00;10.10;;;;;;;;;;5114455;28;20385;-51
2023/11/29 05:10:41;;;;;;;12.53;10.23;;;;;;;;;;5114227;28;20520;-52
2023/11/29 05:13:07;;;;;;;11.30;9.47;;;;;;;;;;5114830;28;20104;-51
2023/11/29 05:15:34;;;;;;;12.50;9.20;;;;;;;;;;5114297;28;20023;-53
2023/11/29 05:18:00;;;;;;;17.40;9.80;;;;;;;;;;5114376;28;20032;-54
2023/11/29 05:20:26;;;;;;;11.40;9.50;;;;;;;;;;5114293;28;20028;-52
2023/11/29 05:22:52;;;;;;;16.50;11.23;;;;;;;;;;5114837;28;20049;-54
2023/11/29 05:25:19;;;;;;;11.60;9.53;;;;;;;;;;5113891;28;20377;-55
2023/11/29 05:27:45;;;;;;;13.90;9.97;;;;;;;;;;5114366;28;20030;-54
2023/11/29 05:30:11;;;;;;;11.47;8.67;;;;;;;;;;5114111;28;20024;-53
2023/11/29 05:32:37;;;;;;;13.63;11.43;;;;;;;;;;5114120;28;20027;-54
2023/11/29 05:35:03;;;;;;;9.73;8.73;;;;;;;;;;5115762;28;20022;-55
2023/11/29 05:37:29;;;;;;;12.27;9.40;;;;;;;;;;5118357;28;20024;-52
2023/11/29 05:39:56;;;;;;;11.73;9.70;;;;;;;;;;5118510;28;20369;-56
2023/11/29 05:42:23;;;;;;;13.33;9.27;;;;;;;;;;5118271;28;20020;-56
2023/11/29 05:44:49;;;;;;;13.33;10.03;;;;;;;;;;5118189;28;20106;-50
2023/11/29 05:47:15;;;;;;;10.87;9.03;;;;;;;;;;5118363;28;20084;-52
2023/11/29 05:49:41;;;;;;;12.73;8.87;;;;;;;;;;5117696;28;20031;-52
2023/11/29 05:52:07;;;;;;;12.13;9.93;;;;;;;;;;5117944;28;20023;-55
2023/11/29 05:54:33;;;;;;;11.37;8.47;;;;;;;;;;5117673;28;20181;-56
2023/11/29 05:57:03;;;;;;;11.43;9.30;;;;;;;;;;5118526;28;20453;-57
2023/11/29 05:59:28;;;;;;;10.63;8.63;;;;;;;;;;5117880;28;20020;-55
2023/11/29 06:01:55;;;;;;;12.50;9.90;;;;;;;;;;5117865;28;20049;-53
2023/11/29 06:04:22;;;;;;;12.37;8.23;;;;;;;;;;5118561;28;20038;-50
2023/11/29 06:06:48;;;;;;;12.80;8.33;;;;;;;;;;5117619;28;20461;-55
2023/11/29 06:09:14;;;;;;;13.60;10.40;;;;;;;;;;5117635;28;20422;-51
2023/11/29 06:11:41;;;;;;;13.37;9.57;;;;;;;;;;5118289;28;20066;-55
2023/11/29 06:14:06;;;;;;;10.67;9.03;;;;;;;;;;5118106;28;20127;-54
2023/11/29 06:16:33;;;;;;;10.70;9.03;;;;;;;;;;5118237;28;20453;-56
2023/11/29 06:18:59;;;;;;;12.20;8.73;;;;;;;;;;5118156;28;20055;-55
2023/11/29 06:21:25;;;;;;;12.10;9.63;;;;;;;;;;5117212;28;20055;-56
2023/11/29 06:23:51;;;;;;;13.13;9.47;;;;;;;;;;5117308;28;20050;-56
2023/11/29 06:26:18;;;;;;;11.10;9.30;;;;;;;;;;5117707;28;20027;-51
2023/11/29 06:28:44;;;;;;;12.20;9.67;;;;;;;;;;5118315;28;20035;-55
2023/11/29 06:31:10;;;;;;;9.60;8.60;;;;;;;;;;5117842;28;20449;-55
2023/11/29 06:33:36;;;;;;;12.50;10.17;;;;;;;;;;5117224;28;20092;-56
2023/11/29 06:36:03;;;;;;;13.67;10.13;;;;;;;;;;5117153;28;20469;-55
2023/11/29 06:38:29;;;;;;;12.70;9.60;;;;;;;;;;5117855;28;20027;-54
2023/11/29 06:40:57;;;;;;;12.40;8.97;;;;;;;;;;5117752;28;20028;-56
2023/11/29 06:43:23;;;;;;;15.87;11.00;;;;;;;;;;5117034;28;20042;-53
2023/11/29 06:45:49;;;;;;;9.93;8.50;;;;;;;;;;5116964;28;20465;-56
2023/11/29 06:48:15;;;;;;;12.73;10.07;;;;;;;;;;5117407;28;20399;-56
2023/11/29 06:50:42;;;;;;;13.63;9.90;;;;;;;;;;5116866;28;20028;-52
2023/11/29 06:53:08;;;;;;;13.63;10.40;;;;;;;;;;5116853;28;20118;-56
2023/11/29 06:55:34;;;;;;;12.73;10.70;;;;;;;;;;5116965;28;20127;-55
2023/11/29 06:58:00;;;;;;;11.50;9.63;;;;;;;;;;5117077;28;20080;-52
2023/11/29 07:00:27;;;;;;;12.17;10.30;;;;;;;;;;5116480;28;20032;-54
2023/11/29 07:02:53;;;;;;;12.57;9.53;;;;;;;;;;5116616;28;20045;-55
2023/11/29 07:05:20;;;;;;;11.43;8.57;;;;;;;;;;5117438;28;20429;-54
2023/11/29 07:07:47;;;;;;;11.30;10.10;;;;;;;;;;5117229;28;20027;-56
2023/11/29 07:10:13;;;;;;;12.97;9.27;;;;;;;;;;5116506;28;20148;-55
2023/11/29 07:12:39;;;;;;;10.60;8.40;;;;;;;;;;5116279;28;20496;-54
2023/11/29 07:15:05;;;;;;;10.83;9.07;;;;;;;;;;5117020;28;20118;-51
2023/11/29 07:17:31;;;;;;;9.83;8.20;;;;;;;;;;5116963;28;20031;-54
2023/11/29 07:20:00;;;;;;;13.27;10.17;;;;;;;;;;5116436;28;20024;-53
2023/11/29 07:22:26;;;;;;;11.90;9.20;;;;;;;;;;5116319;28;20051;-54
2023/11/29 07:24:52;;;;;;;10.17;8.90;;;;;;;;;;5116848;28;20498;-53
2023/11/29 07:27:18;;;;;;;10.37;9.03;;;;;;;;;;5116258;28;20019;-55
2023/11/29 07:29:44;;;;;;;11.67;9.77;;;;;;;;;;5116229;28;20077;-52
2023/11/29 07:32:11;;;;;;;11.07;8.83;;;;;;;;;;5097881;28;20027;-53
2023/11/29 07:34:37;;;;;;;10.60;8.80;;;;;;;;;;5116044;28;20036;-54
2023/11/29 07:37:03;;;;;;;11.07;8.37;;;;;;;;;;5116115;28;20034;-54
2023/11/29 07:39:29;;;;;;;14.50;7.60;;;;;;;;;;5116038;28;20027;-53
2023/11/29 07:41:55;;;;;;;8.87;7.03;;;;;;;;;;5116268;28;20016;-56
2023/11/29 07:44:21;;;;;;;12.87;9.13;;;;;;;;;;5115717;28;20034;-53
2023/11/29 07:46:47;;;;;;;9.50;7.97;;;;;;;;;;5116477;28;20388;-52
2023/11/29 07:49:15;;;;;;;12.33;8.80;;;;;;;;;;5115832;28;20412;-54
2023/11/29 07:51:44;;;;;;;10.17;8.17;;;;;;;;;;5116517;28;20063;-55
2023/11/29 07:54:10;;;;;;;11.73;8.90;;;;;;;;;;5116516;28;20105;-53
2023/11/29 07:56:42;;;;;;;10.17;7.67;;;;;;;;;;5115216;28;20048;-55
2023/11/29 07:59:09;;;;;;;8.60;6.87;;;;;;;;;;5115634;28;20114;-52
2023/11/29 08:01:35;;;;;;;10.50;8.60;;;;;;;;;;5115557;28;20453;-54
2023/11/29 08:04:01;;;;;;;10.07;8.27;;;;;;;;;;5115191;28;20035;-52
2023/11/29 08:06:28;;;;;;;10.40;7.47;;;;;;;;;;5115060;28;20036;-56
2023/11/29 08:08:54;;;;;;;10.20;7.77;;;;;;;;;;5116280;28;20057;-54
2023/11/29 08:11:21;;;;;;;8.87;6.30;;;;;;;;;;5115965;28;20019;-55
2023/11/29 08:13:46;;;;;;;8.67;6.73;;;;;;;;;;5115303;28;20427;-52
2023/11/29 08:16:12;;;;;;;11.00;7.27;;;;;;;;;;5115373;28;20032;-54
2023/11/29 08:18:38;;;;;;;10.13;7.73;;;;;;;;;;5115924;28;20024;-55
2023/11/29 08:21:04;;;;;;;9.37;6.23;;;;;;;;;;5115654;28;20445;-54
2023/11/29 08:23:30;;;;;;;7.83;6.30;;;;;;;;;;5114853;28;20032;-56
2023/11/29 08:25:56;;;;;;;8.77;7.07;;;;;;;;;;5115282;28;20059;-56
2023/11/29 08:28:23;;;;;;;7.80;7.00;;;;;;;;;;5115665;28;20030;-55
2023/11/29 08:30:49;;;;;;;8.97;6.97;;;;;;;;;;5115094;28;20028;-56
2023/11/29 08:33:15;;;;;;;7.40;5.90;;;;;;;;;;5114866;28;20054;-53
2023/11/29 08:35:42;;;;;;;8.73;7.03;;;;;;;;;;5115194;28;20084;-55
2023/11/29 08:38:07;;;;;;;9.87;6.67;;;;;;;;;;5115477;28;20030;-52
2023/11/29 08:40:34;;;;;;;9.30;7.13;;;;;;;;;;5114813;28;20460;-53
2023/11/29 08:43:01;;;;;;;8.23;6.43;;;;;;;;;;5114820;28;20099;-52
2023/11/29 08:45:27;;;;;;;8.10;6.17;;;;;;;;;;5115389;28;20357;-54
2023/11/29 08:47:53;;;;;;;8.47;7.30;;;;;;;;;;5115289;28;20023;-54
2023/11/29 08:50:19;;;;;;;7.20;5.90;;;;;;;;;;5115135;28;20334;-54
2023/11/29 08:52:46;;;;;;;8.60;6.20;;;;;;;;;;5114511;28;20074;-49
2023/11/29 08:55:12;;;;;;;10.60;5.63;;;;;;;;;;5115135;28;20056;-55
2023/11/29 08:57:39;;;;;;;7.97;6.17;;;;;;;;;;5114586;28;20032;-51
2023/11/29 09:00:05;;;;;;;9.20;6.13;;;;;;;;;;5114566;28;20035;-56
2023/11/29 09:02:31;;;;;;;8.07;5.57;;;;;;;;;;5114456;28;20024;-54
2023/11/29 09:04:58;;;;;;;7.90;6.70;;;;;;;;;;5114554;28;20117;-53
2023/11/29 09:07:24;;;;;;;11.97;5.70;;;;;;;;;;5114139;28;20496;-55
2023/11/29 09:09:49;;;;;;;8.03;5.53;;;;;;;;;;5096373;28;20421;-51
2023/11/29 09:12:16;;;;;;;10.10;5.87;;;;;;;;;;5114780;28;20062;-52
2023/11/29 09:14:42;;;;;;;6.43;5.80;;;;;;;;;;5114819;28;20040;-49
2023/11/29 09:17:08;;;;;;;6.40;5.80;;;;;;;;;;5114921;28;20426;-56
2023/11/29 09:19:34;;;;;;;7.37;5.87;;;;;;;;;;5114797;28;20354;-51
2023/11/29 09:22:01;;;;;;;8.20;6.40;;;;;;;;;;5114366;28;20077;-52
2023/11/29 09:24:27;;;;;;;6.47;5.20;;;;;;;;;;5114695;28;20035;-53
2023/11/29 09:26:54;;;;;;;8.23;6.10;;;;;;;;;;5114769;28;20032;-52
2023/11/29 09:29:21;;;;;;;5.73;4.60;;;;;;;;;;5114096;28;20077;-51
2023/11/29 09:31:47;;;;;;;6.97;5.40;;;;;;;;;;5113976;28;20031;-51
2023/11/29 09:34:12;;;;;;;5.90;5.10;;;;;;;;;;5114038;28;20035;-54
2023/11/29 09:36:39;;;;;;;9.43;5.30;;;;;;;;;;5114115;28;20365;-54
2023/11/29 09:39:12;;;;;;;7.40;4.63;;;;;;;;;;5114958;28;20031;-49
2023/11/29 09:41:39;;;;;;;7.37;5.07;;;;;;;;;;5114704;28;20078;-53
2023/11/29 09:44:05;;;;;;;6.50;4.20;;;;;;;;;;5114091;28;20028;-52
2023/11/29 09:46:31;;;;;;;7.30;5.30;;;;;;;;;;5114601;28;20373;-52
2023/11/29 09:48:58;;;;;;;5.90;4.50;;;;;;;;;;5113912;28;20485;-52
2023/11/29 09:51:25;;;;;;;6.83;4.43;;;;;;;;;;5113913;28;20027;-54
2023/11/29 09:53:50;;;;;;;5.90;4.83;;;;;;;;;;5113856;28;20039;-53
2023/11/29 09:56:16;;;;;;;5.30;4.40;;;;;;;;;;5113955;28;20051;-55
2023/11/29 09:58:42;;;;;;;5.47;4.03;;;;;;;;;;5113632;28;20027;-55
2023/11/29 10:01:08;;;;;;;5.57;4.00;;;;;;;;;;5113916;28;20024;-52
2023/11/29 10:03:34;;;;;;;5.67;4.73;;;;;;;;;;5114344;28;20028;-54
2023/11/29 10:06:04;;;;;;;7.23;4.33;;;;;;;;;;5113886;28;20090;-52
2023/11/29 10:08:30;;;;;;;5.30;4.27;;;;;;;;;;5114352;28;20473;-52
2023/11/29 10:10:56;;;;;;;6.97;5.13;;;;;;;;;;5114264;28;20031;-54
2023/11/29 10:13:22;;;;;;;6.17;4.87;;;;;;;;;;5114001;28;20028;-49
2023/11/29 10:15:49;;;;;;;5.43;4.73;;;;;;;;;;5113923;28;20035;-51
2023/11/29 10:18:16;;;;;;;5.63;3.77;;;;;;;;;;5114526;28;20024;-52
2023/11/29 10:20:49;;;;;;;6.30;4.23;;;;;;;;;;5114938;28;20034;-54
2023/11/29 10:23:15;;;;;;;4.93;3.83;;;;;;;;;;5117535;28;20027;-52
2023/11/29 10:25:42;;;;;;;8.50;4.17;;;;;;;;;;5118052;28;20030;-52
2023/11/29 10:28:08;;;;;;;5.97;4.47;;;;;;;;;;5118047;28;20077;-52
2023/11/29 10:30:34;;;;;;;5.87;3.80;;;;;;;;;;5117350;28;20016;-54
2023/11/29 10:33:00;;;;;;;6.33;4.77;;;;;;;;;;5116992;28;20138;-54
2023/11/29 10:35:26;;;;;;;4.77;3.63;;;;;;;;;;5117734;28;20032;-56
2023/11/29 10:37:57;;;;;;;4.53;3.73;;;;;;;;;;5118076;28;20058;-55
2023/11/29 10:40:23;;;;;;;;;;;;;;;;;;5117441;28;20123;-54
2023/11/29 10:42:51;;;;;;;5.83;3.77;;;;;;;;;;5117039;28;19973;-55
2023/11/29 10:45:17;;;;;;;4.63;3.50;;;;;;;;;;5116823;28;20031;-53
2023/11/29 10:47:59;;;;;;;5.77;4.37;;;;;;;;;;5117397;28;20023;-51
2023/11/29 10:50:26;;;;;;;4.73;3.80;;;;;;;;;;5116944;28;20028;-55
2023/11/29 10:52:52;;;;;;;5.07;3.90;;;;;;;;;;5116685;28;20035;-54
2023/11/29 10:55:20;;;;;;;4.73;3.70;;;;;;;;;;5116245;28;20457;-55
2023/11/29 10:57:50;;;;;;;5.60;4.13;;;;;;;;;;5117106;28;20027;-54
2023/11/29 11:00:18;;;;;;;6.43;4.22;;;;;;;;;;5117625;28;20060;-55
2023/11/29 11:02:47;;;;;;;6.17;4.13;;;;;;;;;;5116953;28;20032;-55
2023/11/29 11:05:16;;;;;;;4.03;3.23;;;;;;;;;;5116687;28;20031;-56
2023/11/29 11:07:42;;;;;;;6.27;4.57;;;;;;;;;;5117147;28;20023;-55
2023/11/29 11:10:12;;;;;;;5.50;4.50;;;;;;;;;;5116457;28;20023;-56
2023/11/29 11:12:38;;;;;;;4.67;3.80;;;;;;;;;;5116339;28;20023;-54
2023/11/29 11:15:20;;;;;;;5.13;3.90;;;;;;;;;;5117172;28;20019;-56
2023/11/29 11:18:02;;;;;;;6.47;3.77;;;;;;;;;;5117057;28;20027;-56
2023/11/29 11:20:51;;;;;;;4.77;3.50;;;;;;;;;;5116985;28;20150;-56
2023/11/29 11:23:32;;;;;;;3.67;2.90;;;;;;;;;;5103759;28;20038;-56
2023/11/29 11:26:01;;;;;;;5.20;4.00;;;;;;;;;;5116329;28;20019;-54
2023/11/29 11:28:28;;;;;;;5.60;4.27;;;;;;;;;;5116641;28;20034;-55
2023/11/29 11:30:55;;;;;;;4.17;3.30;;;;;;;;;;5116556;28;20027;-53
2023/11/29 11:33:22;;;;;;;4.10;3.10;;;;;;;;;;5115273;28;20039;-51
2023/11/29 11:35:48;;;;;;;4.80;3.50;;;;;;;;;;5116148;28;20385;-54
2023/11/29 11:38:13;;;;;;;4.83;3.57;;;;;;;;;;5116963;28;20398;-54
2023/11/29 11:40:41;;;;;;;3.60;3.00;;;;;;;;;;5116101;28;20054;-55
2023/11/29 11:43:07;;;;;;;3.77;2.67;;;;;;;;;;5116679;28;20024;-55
2023/11/29 11:45:36;;;;;;;3.67;2.43;;;;;;;;;;5115893;28;20481;-55
2023/11/29 11:48:03;;;;;;;5.57;3.63;;;;;;;;;;5115865;28;20422;-53
2023/11/29 11:50:29;;;;;;;6.60;3.47;;;;;;;;;;5115774;28;20031;-54
2023/11/29 11:52:59;;;;;;;4.83;3.10;;;;;;;;;;5116308;28;20035;-51
2023/11/29 11:55:25;;;;;;;6.00;2.78;;;;;;;;;;5097846;28;20052;-55
2023/11/29 11:57:51;;;;;;;4.10;2.80;;;;;;;;;;5115667;28;20043;-56
2023/11/29 12:00:17;;;;;;;6.13;3.13;;;;;;;;;;5116113;28;20024;-55
2023/11/29 12:02:44;;;;;;;3.00;2.45;;;;;;;;;;5115852;28;20469;-54
2023/11/29 12:05:10;;;;;;;2.90;2.53;;;;;;;;;;5115475;28;20575;-55
2023/11/29 12:07:39;;;;;;;4.03;2.65;;;;;;;;;;5115287;28;20063;-56
2023/11/29 12:10:08;;;;;;;3.70;2.35;;;;;;;;;;5115500;28;20060;-54
2023/11/29 12:12:34;;;;;;;3.43;2.63;;;;;;;;;;5097072;28;20028;-51
2023/11/29 12:15:02;;;;;;;2.90;2.13;;;;;;;;;;5115822;28;20038;-56
2023/11/29 12:17:32;;;;;;;2.80;2.00;;;;;;;;;;5115926;28;20047;-54
2023/11/29 12:19:58;;;;;;;4.28;2.58;;;;;;;;;;5115696;28;20055;-54
2023/11/29 12:22:25;;;;;;;3.70;2.60;;;;;;;;;;5115158;28;20054;-55
2023/11/29 12:24:51;;;;;;;2.47;1.93;;;;;;;;;;5115701;28;20085;-56
2023/11/29 12:27:18;;;;;;;4.40;3.20;;;;;;;;;;5115969;28;20019;-55
2023/11/29 12:29:48;;;;;;;4.00;2.83;;;;;;;;;;5114981;28;20020;-54
2023/11/29 12:32:19;;;;;;;3.38;2.03;;;;;;;;;;5115101;28;20024;-54
2023/11/29 12:34:45;;;;;;;3.83;2.70;;;;;;;;;;5115781;28;20039;-56
2023/11/29 12:37:15;;;;;;;3.97;2.40;;;;;;;;;;5115807;28;20028;-55
2023/11/29 12:39:43;;;;;;;3.88;2.85;;;;;;;;;;5115564;28;20026;-54
2023/11/29 12:42:11;;;;;;;5.37;2.80;;;;;;;;;;5114797;28;20032;-56
2023/11/29 12:44:38;;;;;;;4.90;2.53;;;;;;;;;;5115103;28;20053;-55
2023/11/29 12:47:04;;;;;;;4.20;2.60;;;;;;;;;;5115002;28;20544;-54
2023/11/29 12:49:31;;;;;;;3.77;2.57;;;;;;;;;;5114287;28;20026;-53
2023/11/29 12:51:57;;;;;;;3.40;2.47;;;;;;;;;;5115257;28;20107;-53
2023/11/29 12:54:23;;;;;;;3.33;2.40;;;;;;;;;;5115424;28;20032;-52
2023/11/29 12:56:49;;;;;;;3.57;2.47;;;;;;;;;;5114273;28;20059;-55
2023/11/29 12:59:15;;;;;;;3.43;2.43;;;;;;;;;;5114944;28;20027;-54
2023/11/29 13:01:41;;;;;;;3.33;2.43;;;;;;;;;;5114434;28;20047;-53
2023/11/29 13:04:07;;;;;;;4.23;2.60;;;;;;;;;;5114200;28;20020;-55
2023/11/29 13:06:33;;;;;;;3.40;2.30;;;;;;;;;;5114227;28;20028;-51
2023/11/29 13:08:59;;;;;;;3.87;3.00;;;;;;;;;;5114854;28;20366;-55
2023/11/29 13:11:26;;;;;;;3.60;2.40;;;;;;;;;;5114895;28;20015;-51
2023/11/29 13:13:52;;;;;;;3.80;2.67;;;;;;;;;;5114825;28;20136;-52
2023/11/29 13:16:18;;;;;;;3.40;2.77;;;;;;;;;;5115265;28;20024;-51
2023/11/29 13:18:45;;;;;;;4.50;3.20;;;;;;;;;;5114885;28;20028;-55
2023/11/29 13:21:11;;;;;;;4.47;3.10;;;;;;;;;;5114303;28;20030;-54
2023/11/29 13:23:37;;;;;;;3.50;2.70;;;;;;;;;;5114199;28;20027;-53
2023/11/29 13:26:03;;;;;;;8.57;2.33;;;;;;;;;;5114219;28;20024;-51
2023/11/29 13:28:29;;;;;;;4.03;3.13;;;;;;;;;;5114743;28;20028;-54
2023/11/29 13:30:56;;;;;;;4.60;3.07;;;;;;;;;;5114289;28;20019;-52
2023/11/29 13:33:22;;;;;;;3.60;2.40;;;;;;;;;;5113901;28;20077;-54
2023/11/29 13:35:48;;;;;;;4.07;2.92;;;;;;;;;;5114005;28;20069;-53
2023/11/29 13:38:14;;;;;;;5.07;2.90;;;;;;;;;;5114632;28;20076;-54
2023/11/29 13:40:40;;;;;;;4.47;2.70;;;;;;;;;;5114128;28;20034;-53
2023/11/29 13:43:06;;;;;;;3.67;2.27;;;;;;;;;;5114766;28;20065;-52
2023/11/29 13:45:33;;;;;;;4.10;3.17;;;;;;;;;;5113948;28;20076;-52
2023/11/29 13:47:59;;;;;;;4.00;3.00;;;;;;;;;;5114630;28;20027;-53
2023/11/29 13:50:27;;;;;;;3.17;2.43;;;;;;;;;;5113686;28;20027;-55
2023/11/29 13:52:53;;;;;;;3.83;2.77;;;;;;;;;;5113843;28;20031;-54
2023/11/29 13:55:20;;;;;;;4.47;3.00;;;;;;;;;;5114618;28;20058;-53
2023/11/29 13:57:46;;;;;;;3.03;2.53;;;;;;;;;;5118552;28;20379;-55
2023/11/29 14:00:12;;;;;;;9.77;2.60;;;;;;;;;;5117981;28;20020;-54
2023/11/29 14:02:38;;;;;;;4.10;2.90;;;;;;;;;;5117942;28;20028;-55
2023/11/29 14:05:04;;;;;;;3.37;2.37;;;;;;;;;;5118757;28;20410;-55
2023/11/29 14:07:30;;;;;;;3.80;2.60;;;;;;;;;;5118246;28;20342;-52
2023/11/29 14:09:56;;;;;;;3.70;2.70;;;;;;;;;;5118936;28;20341;-51
2023/11/29 14:12:22;;;;;;;7.40;3.00;;;;;;;;;;5118342;28;20015;-54
2023/11/29 14:14:48;;;;;;;4.07;2.70;;;;;;;;;;5118156;28;20031;-52
2023/11/29 14:17:14;;;;;;;4.60;2.80;;;;;;;;;;5117968;28;20020;-53
2023/11/29 14:19:40;;;;;;;3.47;2.50;;;;;;;;;;5117526;28;20031;-55
2023/11/29 14:22:06;;;;;;;2.77;1.90;;;;;;;;;;5117551;28;20059;-54
2023/11/29 14:24:33;;;;;;;4.10;2.23;;;;;;;;;;5117578;28;20035;-51
2023/11/29 14:26:59;;;;;;;3.07;2.27;;;;;;;;;;5118125;28;20020;-56
2023/11/29 14:29:25;;;;;;;3.60;2.80;;;;;;;;;;5117750;28;20373;-55